createdAt,value
2023-01-30T00:00:16.185Z,22.42
2023-01-30T00:03:07.117Z,15.63
2023-01-30T00:05:36.109Z,18.10
2023-01-30T00:08:05.547Z,17.65
2023-01-30T00:10:35.444Z,18.83
2023-01-30T00:13:04.795Z,14.50
2023-01-30T00:15:33.878Z,18.75
2023-01-30T00:18:03.157Z,18.10
2023-01-30T00:20:33.990Z,17.75
2023-01-30T00:23:03.298Z,16.20
2023-01-30T00:25:32.629Z,16.45
2023-01-30T00:28:02.596Z,16.67
2023-01-30T00:30:31.982Z,16.15
2023-01-30T00:33:01.450Z,15.20
2023-01-30T00:35:30.447Z,14.18
2023-01-30T00:38:01.914Z,13.85
2023-01-30T00:40:32.089Z,14.30
2023-01-30T00:43:19.397Z,16.70
2023-01-30T00:46:06.314Z,14.80
2023-01-30T00:48:36.857Z,14.40
2023-01-30T00:51:06.355Z,14.98
2023-01-30T00:53:36.930Z,15.70
2023-01-30T00:58:35.338Z,15.75
2023-01-30T01:01:05.397Z,15.07
2023-01-30T01:03:34.788Z,16.17
2023-01-30T01:06:03.899Z,17.90
2023-01-30T01:08:33.219Z,15.85
2023-01-30T01:11:03.861Z,16.20
2023-01-30T01:13:33.187Z,16.52
2023-01-30T01:16:02.231Z,16.45
2023-01-30T01:18:32.025Z,17.88
2023-01-30T01:21:00.882Z,18.08
2023-01-30T01:23:30.058Z,15.60
2023-01-30T01:26:04.670Z,17.58
2023-01-30T01:28:34.007Z,15.05
2023-01-30T01:31:08.319Z,14.10
2023-01-30T01:33:37.673Z,16.17
2023-01-30T01:36:07.452Z,16.25
2023-01-30T01:38:37.697Z,15.63
2023-01-30T01:41:07.212Z,17.17
2023-01-30T01:43:39.705Z,14.68
2023-01-30T01:46:15.204Z,13.85
2023-01-30T01:48:49.441Z,13.82
2023-01-30T01:51:23.653Z,15.20
2023-01-30T01:53:58.111Z,14.25
2023-01-30T01:56:29.080Z,14.07
2023-01-30T01:59:03.119Z,15.25
2023-01-30T02:01:32.355Z,11.55
2023-01-30T02:04:09.167Z,13.68
2023-01-30T02:06:40.803Z,15.85
2023-01-30T02:09:12.376Z,16.58
2023-01-30T02:11:46.193Z,17.20
2023-01-30T02:14:17.408Z,16.65
2023-01-30T02:16:48.673Z,14.88
2023-01-30T02:19:32.044Z,15.40
2023-01-30T02:22:25.596Z,14.55
2023-01-30T02:25:36.665Z,18.13
2023-01-30T02:28:50.272Z,16.27
2023-01-30T02:31:29.902Z,16.90
2023-01-30T02:34:25.777Z,18.02
2023-01-30T02:37:10.408Z,20.08
2023-01-30T02:39:46.851Z,15.60
2023-01-30T02:42:24.780Z,16.48
2023-01-30T02:45:02.529Z,16.42
2023-01-30T02:47:39.641Z,17.42
2023-01-30T02:50:15.606Z,18.17
2023-01-30T02:52:45.803Z,17.15
2023-01-30T02:55:21.160Z,17.80
2023-01-30T02:57:52.304Z,15.98
2023-01-30T03:00:40.599Z,15.13
2023-01-30T03:03:33.744Z,15.45
2023-01-30T03:06:33.451Z,16.42
2023-01-30T03:09:14.720Z,16.17
2023-01-30T03:11:48.546Z,16.13
2023-01-30T03:14:25.440Z,15.27
2023-01-30T03:16:58.112Z,13.68
2023-01-30T03:19:30.793Z,12.85
2023-01-30T03:22:02.215Z,13.93
2023-01-30T03:24:31.602Z,14.07
2023-01-30T03:27:04.508Z,12.52
2023-01-30T03:29:34.174Z,11.98
2023-01-30T03:32:03.137Z,11.02
2023-01-30T03:34:33.803Z,8.90
2023-01-30T03:39:36.510Z,9.55
2023-01-30T03:42:07.670Z,9.38
2023-01-30T03:44:36.955Z,9.40
2023-01-30T03:47:06.629Z,8.25
2023-01-30T03:49:37.363Z,8.63
2023-01-30T03:54:35.490Z,8.57
2023-01-30T03:57:05.988Z,8.75
2023-01-30T04:02:09.670Z,7.30
2023-01-30T04:04:40.350Z,6.93
2023-01-30T04:07:11.688Z,7.68
2023-01-30T04:09:42.596Z,7.13
2023-01-30T04:12:11.684Z,7.60
2023-01-30T04:14:48.599Z,6.60
2023-01-30T04:17:34.394Z,7.38
2023-01-30T04:20:29.236Z,6.93
2023-01-30T04:22:59.293Z,6.35
2023-01-30T04:25:29.748Z,6.97
2023-01-30T04:27:58.647Z,5.75
2023-01-30T04:30:32.369Z,8.23
2023-01-30T04:33:19.358Z,5.25
2023-01-30T04:35:55.733Z,5.60
2023-01-30T04:38:25.622Z,5.85
2023-01-30T04:40:57.021Z,7.13
2023-01-30T04:43:29.779Z,5.85
2023-01-30T04:46:05.160Z,6.03
2023-01-30T04:48:34.567Z,7.18
2023-01-30T04:51:06.926Z,5.82
2023-01-30T04:53:37.816Z,5.93
2023-01-30T04:56:08.344Z,6.43
2023-01-30T05:01:17.731Z,6.45
2023-01-30T05:03:46.677Z,5.38
2023-01-30T05:06:17.283Z,4.80
2023-01-30T05:11:18.413Z,5.20
2023-01-30T05:13:47.937Z,5.15
2023-01-30T05:16:18.132Z,5.30
2023-01-30T05:18:47.188Z,6.50
2023-01-30T05:21:19.875Z,4.60
2023-01-30T05:23:49.160Z,4.95
2023-01-30T05:26:18.360Z,4.40
2023-01-30T05:28:52.002Z,5.70
2023-01-30T05:31:21.275Z,5.18
2023-01-30T05:33:52.444Z,4.97
2023-01-30T05:36:24.858Z,3.60
2023-01-30T05:38:54.087Z,4.35
2023-01-30T05:41:23.261Z,6.00
2023-01-30T05:43:52.567Z,4.97
2023-01-30T05:46:22.116Z,4.13
2023-01-30T05:48:51.073Z,4.22
2023-01-30T05:51:23.746Z,3.63
2023-01-30T05:53:53.589Z,5.25
2023-01-30T05:56:23.695Z,5.57
2023-01-30T05:58:53.834Z,5.75
2023-01-30T06:03:52.723Z,3.90
2023-01-30T06:06:23.944Z,3.85
2023-01-30T06:08:55.495Z,3.45
2023-01-30T06:11:25.654Z,3.42
2023-01-30T06:13:54.640Z,4.38
2023-01-30T06:16:23.915Z,4.05
2023-01-30T06:18:52.963Z,3.00
2023-01-30T06:21:23.542Z,5.07
2023-01-30T06:26:21.572Z,4.32
2023-01-30T06:28:50.522Z,2.78
2023-01-30T06:31:19.797Z,4.13
2023-01-30T06:33:49.462Z,2.30
2023-01-30T06:36:18.601Z,2.72
2023-01-30T06:38:48.887Z,3.45
2023-01-30T06:41:18.204Z,2.60
2023-01-30T06:43:47.096Z,2.53
2023-01-30T06:46:16.457Z,2.67
2023-01-30T06:48:45.573Z,2.30
2023-01-30T06:51:14.896Z,3.03
2023-01-30T06:53:43.757Z,3.28
2023-01-30T06:56:14.349Z,2.97
2023-01-30T07:01:12.440Z,1.83
2023-01-30T07:03:41.414Z,3.10
2023-01-30T07:06:12.233Z,2.20
2023-01-30T07:08:42.584Z,2.53
2023-01-30T07:11:14.439Z,2.35
2023-01-30T07:13:43.399Z,3.15
2023-01-30T07:16:12.617Z,2.78
2023-01-30T07:18:41.520Z,4.93
2023-01-30T07:21:10.856Z,3.25
2023-01-30T07:23:39.869Z,3.13
2023-01-30T07:26:08.997Z,1.98
2023-01-30T07:28:39.329Z,3.00
2023-01-30T07:31:08.742Z,2.20
2023-01-30T07:33:37.828Z,3.40
2023-01-30T07:36:07.627Z,2.67
2023-01-30T07:38:36.592Z,3.55
2023-01-30T07:41:05.928Z,2.75
2023-01-30T07:43:34.846Z,3.38
2023-01-30T07:46:05.503Z,3.75
2023-01-30T07:48:34.718Z,4.55
2023-01-30T07:51:04.553Z,4.57
2023-01-30T07:53:33.501Z,6.13
2023-01-30T07:56:07.305Z,3.58
2023-01-30T07:58:36.379Z,2.83
2023-01-30T08:01:07.551Z,4.90
2023-01-30T08:03:36.587Z,3.67
2023-01-30T08:06:06.119Z,3.78
2023-01-30T08:08:36.975Z,2.30
2023-01-30T08:11:06.861Z,2.35
2023-01-30T08:13:36.436Z,3.65
2023-01-30T08:16:08.686Z,4.47
2023-01-30T08:18:37.869Z,4.10
2023-01-30T08:21:08.454Z,2.80
2023-01-30T08:23:37.562Z,3.72
2023-01-30T08:26:07.643Z,2.88
2023-01-30T08:28:36.647Z,3.67
2023-01-30T08:31:12.263Z,2.00
2023-01-30T08:33:41.672Z,3.03
2023-01-30T08:36:11.423Z,2.50
2023-01-30T08:38:40.676Z,3.83
2023-01-30T08:41:10.065Z,17.30
2023-01-30T08:43:39.096Z,2.85
2023-01-30T08:46:10.083Z,3.08
2023-01-30T08:48:49.584Z,5.55
2023-01-30T08:51:20.034Z,2.95
2023-01-30T08:53:49.104Z,5.57
2023-01-30T08:56:18.420Z,7.22
2023-01-30T08:58:49.132Z,2.90
2023-01-30T09:01:21.086Z,2.58
2023-01-30T09:03:50.196Z,4.28
2023-01-30T09:06:19.715Z,5.13
2023-01-30T09:08:48.722Z,3.67
2023-01-30T09:11:18.596Z,3.33
2023-01-30T09:13:49.576Z,4.85
2023-01-30T09:16:20.907Z,3.17
2023-01-30T09:18:50.007Z,5.13
2023-01-30T09:21:19.485Z,4.03
2023-01-30T09:23:49.080Z,8.43
2023-01-30T09:26:19.701Z,4.55
2023-01-30T09:28:49.246Z,4.53
2023-01-30T09:31:20.176Z,7.18
2023-01-30T09:33:49.368Z,6.65
2023-01-30T09:36:18.795Z,6.47
2023-01-30T09:38:47.740Z,8.50
2023-01-30T09:41:43.835Z,9.02
2023-01-30T09:44:31.030Z,7.72
2023-01-30T09:47:10.893Z,5.82
2023-01-30T09:49:46.729Z,8.20
2023-01-30T09:52:28.274Z,5.25
2023-01-30T09:55:03.911Z,7.72
2023-01-30T09:57:33.340Z,8.40
2023-01-30T10:00:08.523Z,5.70
2023-01-30T10:02:54.583Z,5.97
2023-01-30T10:05:30.368Z,10.97
2023-01-30T10:08:22.208Z,10.25
2023-01-30T10:11:09.507Z,12.75
2023-01-30T10:13:57.711Z,6.25
2023-01-30T10:16:36.501Z,6.72
2023-01-30T10:19:35.667Z,11.30
2023-01-30T10:22:14.782Z,10.88
2023-01-30T10:24:54.966Z,14.23
2023-01-30T10:27:26.673Z,9.65
2023-01-30T10:29:59.102Z,18.50
2023-01-30T10:32:32.107Z,8.82
2023-01-30T10:35:14.915Z,7.10
2023-01-30T10:37:49.524Z,10.00
2023-01-30T10:40:25.356Z,8.27
2023-01-30T10:43:04.205Z,9.55
2023-01-30T10:45:43.697Z,7.43
2023-01-30T10:48:43.016Z,8.57
2023-01-30T10:51:26.259Z,11.23
2023-01-30T10:53:59.195Z,9.45
2023-01-30T10:56:38.392Z,8.90
2023-01-30T10:59:21.149Z,6.65
2023-01-30T11:02:00.278Z,9.82
2023-01-30T11:04:36.274Z,9.15
2023-01-30T11:07:08.821Z,6.07
2023-01-30T11:09:45.535Z,12.90
2023-01-30T11:12:16.952Z,10.25
2023-01-30T11:14:54.067Z,12.55
2023-01-30T11:17:30.506Z,7.53
2023-01-30T11:20:07.122Z,11.57
2023-01-30T11:22:39.036Z,10.75
2023-01-30T11:25:15.642Z,13.82
2023-01-30T11:27:53.109Z,13.05
2023-01-30T11:30:27.937Z,12.80
2023-01-30T11:33:12.837Z,9.45
2023-01-30T11:35:52.494Z,6.88
2023-01-30T11:38:29.331Z,7.88
2023-01-30T11:41:07.781Z,8.32
2023-01-30T11:43:40.048Z,12.65
2023-01-30T11:46:12.897Z,8.27
2023-01-30T11:49:02.567Z,7.45
2023-01-30T11:51:38.177Z,12.57
2023-01-30T11:54:15.141Z,8.00
2023-01-30T11:56:50.855Z,8.93
2023-01-30T11:59:29.223Z,7.95
2023-01-30T12:02:07.327Z,8.05
2023-01-30T12:04:37.218Z,9.75
2023-01-30T12:07:09.579Z,9.20
2023-01-30T12:09:41.139Z,10.15
2023-01-30T12:12:32.799Z,8.52
2023-01-30T12:15:18.184Z,10.40
2023-01-30T12:17:53.629Z,11.93
2023-01-30T12:20:32.134Z,14.40
2023-01-30T12:23:14.180Z,9.05
2023-01-30T12:25:53.511Z,14.68
2023-01-30T12:28:27.346Z,9.48
2023-01-30T12:31:03.763Z,17.15
2023-01-30T12:33:35.592Z,8.40
2023-01-30T12:36:12.579Z,8.35
2023-01-30T12:38:58.023Z,10.10
2023-01-30T12:41:49.450Z,10.70
2023-01-30T12:44:30.364Z,7.05
2023-01-30T12:47:14.709Z,10.15
2023-01-30T12:50:03.563Z,9.70
2023-01-30T12:52:52.657Z,8.52
2023-01-30T12:55:31.190Z,14.23
2023-01-30T12:58:07.585Z,7.80
2023-01-30T13:00:53.104Z,12.80
2023-01-30T13:03:31.697Z,11.90
2023-01-30T13:06:11.849Z,11.55
2023-01-30T13:18:50.067Z,12.57
2023-01-30T13:21:24.234Z,12.65
2023-01-30T13:24:11.560Z,10.10
2023-01-30T13:26:43.894Z,10.63
2023-01-30T13:30:03.371Z,10.00
2023-01-30T13:32:41.495Z,7.55
2023-01-30T13:35:19.831Z,15.32
2023-01-30T13:37:51.875Z,12.57
2023-01-30T13:40:24.069Z,10.57
2023-01-30T13:42:57.605Z,9.57
2023-01-30T13:45:30.925Z,7.97
2023-01-30T13:48:17.318Z,9.60
2023-01-30T13:51:07.970Z,10.32
2023-01-30T13:53:44.436Z,12.65
2023-01-30T13:56:40.327Z,8.43
2023-01-30T13:59:18.414Z,10.60
2023-01-30T14:02:10.961Z,7.95
2023-01-30T14:04:48.849Z,8.25
2023-01-30T14:07:28.008Z,9.43
2023-01-30T14:10:17.021Z,6.50
2023-01-30T14:12:48.393Z,6.72
2023-01-30T14:15:27.317Z,9.38
2023-01-30T14:18:05.429Z,8.60
2023-01-30T14:20:36.759Z,10.90
2023-01-30T14:23:20.561Z,16.30
2023-01-30T14:25:51.917Z,9.35
2023-01-30T14:28:51.576Z,12.35
2023-01-30T14:31:55.176Z,12.00
2023-01-30T14:34:43.353Z,8.98
2023-01-30T14:41:28.985Z,9.77
2023-01-30T14:43:57.904Z,8.13
2023-01-30T14:46:58.123Z,10.50
2023-01-30T14:51:59.090Z,7.80
2023-01-30T14:54:42.073Z,6.33
2023-01-30T14:57:32.624Z,7.53
2023-01-30T15:00:16.090Z,7.63
2023-01-30T15:03:12.652Z,10.65
2023-01-30T15:05:46.711Z,10.85
2023-01-30T15:08:20.414Z,6.80
2023-01-30T15:11:05.402Z,13.70
2023-01-30T15:13:45.460Z,12.68
2023-01-30T15:16:33.010Z,6.80
2023-01-30T15:19:21.417Z,9.20
2023-01-30T15:22:04.767Z,12.68
2023-01-30T15:25:09.081Z,11.52
2023-01-30T15:27:51.997Z,20.65
2023-01-30T15:30:34.945Z,69.68
2023-01-30T15:33:22.903Z,22.23
2023-01-30T15:35:55.705Z,33.25
2023-01-30T15:38:30.182Z,34.13
2023-01-30T15:41:02.832Z,26.08
2023-01-30T15:48:16.184Z,56.10
2023-01-30T15:50:50.293Z,11.85
2023-01-30T15:53:25.052Z,34.75
2023-01-30T15:55:55.561Z,15.23
2023-01-30T15:58:26.058Z,31.77
2023-01-30T16:00:59.565Z,47.03
2023-01-30T16:03:34.366Z,17.45
2023-01-30T16:06:03.816Z,13.10
2023-01-30T16:08:34.369Z,23.60
2023-01-30T16:13:33.410Z,29.48
2023-01-30T16:16:05.004Z,17.75
2023-01-30T16:18:39.926Z,18.02
2023-01-30T16:21:11.106Z,18.13
2023-01-30T16:23:44.077Z,11.65
2023-01-30T16:26:18.522Z,23.02
2023-01-30T16:28:47.839Z,17.98
2023-01-30T16:31:18.489Z,14.23
2023-01-30T16:33:53.655Z,14.00
2023-01-30T16:36:38.873Z,10.98
2023-01-30T16:39:27.742Z,12.98
2023-01-30T16:41:58.131Z,27.20
2023-01-30T16:44:29.161Z,10.05
2023-01-30T16:47:01.012Z,12.57
2023-01-30T16:49:50.335Z,17.85
2023-01-30T16:52:22.773Z,11.07
2023-01-30T16:54:54.380Z,9.38
2023-01-30T16:57:36.954Z,15.63
2023-01-30T17:00:10.163Z,9.95
2023-01-30T17:02:42.258Z,10.57
2023-01-30T17:05:20.738Z,11.88
2023-01-30T17:07:51.351Z,11.35
2023-01-30T17:10:53.295Z,9.23
2023-01-30T17:13:37.267Z,11.95
2023-01-30T17:16:33.676Z,6.72
2023-01-30T17:19:03.420Z,8.50
2023-01-30T17:24:08.196Z,12.27
2023-01-30T17:26:40.869Z,9.70
2023-01-30T17:29:23.727Z,6.60
2023-01-30T17:31:59.996Z,8.18
2023-01-30T17:34:31.662Z,10.70
2023-01-30T17:37:02.320Z,14.13
2023-01-30T17:39:31.600Z,5.40
2023-01-30T17:42:00.772Z,13.95
2023-01-30T17:44:29.717Z,10.95
2023-01-30T17:46:58.965Z,10.40
2023-01-30T17:49:28.493Z,13.90
2023-01-30T17:51:59.804Z,7.50
2023-01-30T17:54:30.838Z,11.90
2023-01-30T17:57:03.575Z,10.55
2023-01-30T17:59:33.449Z,29.67
2023-01-30T18:02:02.899Z,11.20
2023-01-30T18:04:31.799Z,10.48
2023-01-30T18:07:06.526Z,26.98
2023-01-30T18:09:37.494Z,12.45
2023-01-30T18:12:07.531Z,14.07
2023-01-30T18:14:37.124Z,14.32
2023-01-30T18:17:06.696Z,20.80
2023-01-30T18:19:35.780Z,21.33
2023-01-30T18:22:05.713Z,15.23
2023-01-30T18:24:36.103Z,20.42
2023-01-30T18:27:07.326Z,24.50
2023-01-30T18:29:36.854Z,26.20
2023-01-30T18:34:36.047Z,19.40
2023-01-30T18:37:05.502Z,35.15
2023-01-30T18:39:34.849Z,25.98
2023-01-30T18:42:07.807Z,20.33
2023-01-30T18:44:37.712Z,18.92
2023-01-30T18:47:07.492Z,10.68
2023-01-30T18:49:36.999Z,18.70
2023-01-30T18:52:06.617Z,42.58
2023-01-30T18:54:37.218Z,19.77
2023-01-30T18:57:08.222Z,23.85
2023-01-30T18:59:37.787Z,21.77
2023-01-30T19:02:08.048Z,29.33
2023-01-30T19:04:37.608Z,12.57
2023-01-30T19:07:07.178Z,23.00
2023-01-30T19:09:36.303Z,16.90
2023-01-30T19:12:25.216Z,24.23
2023-01-30T19:14:54.273Z,22.30
2023-01-30T19:17:23.511Z,24.13
2023-01-30T19:19:52.633Z,27.35
2023-01-30T19:22:22.467Z,29.13
2023-01-30T19:24:51.469Z,33.40
2023-01-30T19:27:24.578Z,37.33
2023-01-30T19:29:53.844Z,35.45
2023-01-30T19:32:23.126Z,22.50
2023-01-30T19:34:52.422Z,17.35
2023-01-30T19:37:21.912Z,11.30
2023-01-30T19:39:50.931Z,18.40
2023-01-30T19:42:20.243Z,22.83
2023-01-30T19:44:50.516Z,21.33
2023-01-30T19:47:21.882Z,18.25
2023-01-30T19:49:51.199Z,29.33
2023-01-30T19:52:20.854Z,15.80
2023-01-30T19:54:50.665Z,21.77
2023-01-30T19:57:21.091Z,29.45
2023-01-30T19:59:51.636Z,37.55
2023-01-30T20:02:21.216Z,21.40
2023-01-30T20:04:50.229Z,21.67
2023-01-30T20:07:19.655Z,22.73
2023-01-30T20:09:48.589Z,31.17
2023-01-30T20:12:18.198Z,27.70
2023-01-30T20:14:47.173Z,53.15
2023-01-30T20:17:17.860Z,23.27
2023-01-30T20:22:16.640Z,19.90
2023-01-30T20:24:45.700Z,52.70
2023-01-30T20:27:15.179Z,31.80
2023-01-30T20:29:45.032Z,11.10
2023-01-30T20:34:44.600Z,11.52
2023-01-30T20:37:14.152Z,29.52
2023-01-30T20:39:43.215Z,28.67
2023-01-30T20:42:12.814Z,35.33
2023-01-30T20:44:41.990Z,31.13
2023-01-30T20:47:12.050Z,39.85
2023-01-30T20:49:41.065Z,21.05
2023-01-30T20:52:11.672Z,36.97
2023-01-30T20:57:09.929Z,34.10
2023-01-30T20:59:38.991Z,33.50
2023-01-30T21:02:08.699Z,27.30
2023-01-30T21:04:39.601Z,31.67
2023-01-30T21:07:10.245Z,34.40
2023-01-30T21:09:39.499Z,48.58
2023-01-30T21:12:09.034Z,24.70
2023-01-30T21:14:38.335Z,28.42
2023-01-30T21:17:07.843Z,35.40
2023-01-30T21:19:38.377Z,28.15
2023-01-30T21:22:13.961Z,34.80
2023-01-30T21:27:11.911Z,27.63
2023-01-30T21:29:40.831Z,31.75
2023-01-30T21:32:10.037Z,24.58
2023-01-30T21:34:39.288Z,29.95
2023-01-30T21:37:25.922Z,45.63
2023-01-30T21:40:13.591Z,46.28
2023-01-30T21:43:00.117Z,33.28
2023-01-30T21:45:29.086Z,36.58
2023-01-30T21:47:58.267Z,18.85
2023-01-30T21:50:29.342Z,10.07
2023-01-30T21:52:58.667Z,18.77
2023-01-30T21:55:29.140Z,21.58
2023-01-30T21:57:59.018Z,15.88
2023-01-30T22:00:28.027Z,53.80
2023-01-30T22:02:57.282Z,33.10
2023-01-30T22:05:26.243Z,44.00
2023-01-30T22:07:55.565Z,44.22
2023-01-30T22:10:24.621Z,25.08
2023-01-30T22:12:55.175Z,21.53
2023-01-30T22:17:54.432Z,23.37
2023-01-30T22:20:23.482Z,40.63
2023-01-30T22:22:52.917Z,29.45
2023-01-30T22:25:22.226Z,52.90
2023-01-30T22:27:56.170Z,29.98
2023-01-30T22:30:25.399Z,16.58
2023-01-30T22:32:55.804Z,23.13
2023-01-30T22:35:24.994Z,28.25
2023-01-30T22:37:56.132Z,20.23
2023-01-30T22:40:25.109Z,21.67
2023-01-30T22:42:56.165Z,30.55
2023-01-30T22:45:25.139Z,24.38
2023-01-30T22:47:54.507Z,38.47
2023-01-30T22:50:23.852Z,19.17
2023-01-30T22:52:53.454Z,46.67
2023-01-30T22:55:22.429Z,71.00
2023-01-30T22:57:52.351Z,43.58
2023-01-30T23:00:24.151Z,49.85
2023-01-30T23:02:53.536Z,40.30
2023-01-30T23:05:22.502Z,48.15
2023-01-30T23:07:52.061Z,43.78
2023-01-30T23:10:21.316Z,20.80
2023-01-30T23:13:15.347Z,21.08
2023-01-30T23:15:46.961Z,28.42
2023-01-30T23:18:35.998Z,11.50
2023-01-30T23:21:05.403Z,15.80
2023-01-30T23:23:34.651Z,16.90
2023-01-30T23:26:03.942Z,33.60
2023-01-30T23:28:33.821Z,14.38
2023-01-30T23:31:10.147Z,15.52
2023-01-30T23:33:40.423Z,15.20
2023-01-30T23:36:12.152Z,22.60
2023-01-30T23:38:41.753Z,24.35
2023-01-30T23:41:13.282Z,18.00
2023-01-30T23:43:45.201Z,16.75
2023-01-30T23:46:19.272Z,22.20
2023-01-30T23:48:50.676Z,28.50
2023-01-30T23:51:21.277Z,20.50
2023-01-30T23:53:51.471Z,14.02
2023-01-30T23:56:21.681Z,15.68
2023-01-30T23:58:51.551Z,17.13
